createdAt,value
2022-12-24T00:00:46.531Z,13.00
2022-12-24T00:03:51.167Z,12.80
2022-12-24T00:06:54.166Z,12.90
2022-12-24T00:09:56.989Z,12.80
2022-12-24T00:12:59.838Z,12.80
2022-12-24T00:16:02.989Z,12.70
2022-12-24T00:19:07.192Z,12.70
2022-12-24T00:22:10.518Z,12.70
2022-12-24T00:25:13.552Z,12.70
2022-12-24T00:28:17.281Z,12.60
2022-12-24T00:31:20.684Z,12.70
2022-12-24T00:34:26.273Z,12.80
2022-12-24T00:37:29.128Z,12.80
2022-12-24T00:40:32.272Z,12.90
2022-12-24T00:43:35.114Z,12.90
2022-12-24T00:46:40.097Z,12.90
2022-12-24T00:49:44.358Z,13.00
2022-12-24T00:52:47.258Z,13.00
2022-12-24T00:55:50.098Z,13.10
2022-12-24T00:58:53.481Z,13.10
2022-12-24T01:01:56.515Z,13.00
2022-12-24T01:05:12.712Z,13.00
2022-12-24T01:08:15.906Z,13.10
2022-12-24T01:11:19.045Z,13.20
2022-12-24T01:14:21.909Z,13.10
2022-12-24T01:17:25.012Z,12.90
2022-12-24T01:20:33.020Z,12.80
2022-12-24T01:23:35.888Z,12.70
2022-12-24T01:26:38.877Z,12.60
2022-12-24T01:29:42.508Z,12.70
2022-12-24T01:32:45.376Z,12.80
2022-12-24T01:35:49.629Z,12.80
2022-12-24T01:38:52.511Z,12.80
2022-12-24T01:42:13.026Z,12.80
2022-12-24T01:45:51.049Z,12.80
2022-12-24T01:48:57.097Z,12.80
2022-12-24T01:52:04.917Z,12.80
2022-12-24T01:55:11.501Z,12.80
2022-12-24T01:58:17.349Z,12.80
2022-12-24T02:01:20.414Z,12.80
2022-12-24T02:04:30.431Z,12.70
2022-12-24T02:07:35.033Z,12.70
2022-12-24T02:10:38.232Z,12.70
2022-12-24T02:13:41.841Z,12.60
2022-12-24T02:16:54.955Z,12.70
2022-12-24T02:20:30.255Z,12.60
2022-12-24T02:24:12.988Z,12.50
2022-12-24T02:27:26.029Z,12.50
2022-12-24T02:30:34.395Z,12.60
2022-12-24T02:33:43.426Z,12.60
2022-12-24T02:36:50.848Z,12.50
2022-12-24T02:39:59.563Z,12.50
2022-12-24T02:43:09.274Z,12.50
2022-12-24T02:46:17.121Z,12.40
2022-12-24T02:49:20.166Z,12.50
2022-12-24T02:52:30.904Z,12.40
2022-12-24T02:55:40.378Z,12.40
2022-12-24T02:58:55.631Z,12.50
2022-12-24T03:02:09.127Z,12.40
2022-12-24T03:05:21.352Z,12.40
2022-12-24T03:08:36.057Z,12.50
2022-12-24T03:11:43.015Z,12.40
2022-12-24T03:14:47.331Z,12.40
2022-12-24T03:17:55.169Z,12.40
2022-12-24T03:21:02.372Z,12.40
2022-12-24T03:24:05.494Z,12.30
2022-12-24T03:27:10.444Z,12.40
2022-12-24T03:30:15.508Z,12.40
2022-12-24T03:33:19.880Z,12.30
2022-12-24T03:36:25.386Z,12.30
2022-12-24T03:39:28.250Z,12.40
2022-12-24T03:42:31.129Z,12.30
2022-12-24T03:45:33.996Z,12.40
2022-12-24T03:48:38.261Z,12.30
2022-12-24T03:51:41.106Z,12.40
2022-12-24T03:54:43.952Z,12.40
2022-12-24T03:57:46.833Z,12.40
2022-12-24T04:00:49.803Z,12.50
2022-12-24T04:03:54.044Z,12.40
2022-12-24T04:06:56.906Z,12.30
2022-12-24T04:09:59.840Z,12.40
2022-12-24T04:13:02.705Z,12.40
2022-12-24T04:16:08.524Z,12.30
2022-12-24T04:19:12.776Z,12.30
2022-12-24T04:22:15.628Z,12.30
2022-12-24T04:25:18.555Z,12.30
2022-12-24T04:28:21.436Z,12.20
2022-12-24T04:31:24.380Z,12.20
2022-12-24T04:34:29.091Z,12.30
2022-12-24T04:37:31.967Z,12.40
2022-12-24T04:40:34.883Z,12.40
2022-12-24T04:43:37.826Z,12.40
2022-12-24T04:46:41.090Z,12.40
2022-12-24T04:49:45.319Z,12.30
2022-12-24T04:52:48.166Z,12.40
2022-12-24T04:55:51.041Z,12.40
2022-12-24T04:58:54.573Z,12.40
2022-12-24T05:01:57.509Z,12.40
2022-12-24T05:05:01.875Z,12.30
2022-12-24T05:08:05.169Z,12.30
2022-12-24T05:11:08.755Z,12.40
2022-12-24T05:14:11.614Z,12.40
2022-12-24T05:17:14.534Z,12.20
2022-12-24T05:20:19.129Z,12.30
2022-12-24T05:23:41.879Z,12.30
2022-12-24T05:26:47.424Z,12.30
2022-12-24T05:29:50.272Z,12.40
2022-12-24T05:32:53.174Z,12.20
2022-12-24T05:35:57.378Z,12.30
2022-12-24T05:39:00.376Z,12.20
2022-12-24T05:42:03.279Z,12.20
2022-12-24T05:45:06.928Z,12.20
2022-12-24T05:48:09.901Z,12.20
2022-12-24T05:51:15.953Z,12.30
2022-12-24T05:54:18.823Z,12.20
2022-12-24T05:57:21.682Z,12.30
2022-12-24T06:00:24.669Z,12.10
2022-12-24T06:03:27.552Z,12.10
2022-12-24T06:06:31.756Z,12.20
2022-12-24T06:09:34.791Z,12.20
2022-12-24T06:12:37.653Z,12.30
2022-12-24T06:15:40.825Z,12.30
2022-12-24T06:18:44.222Z,12.20
2022-12-24T06:21:48.438Z,12.30
2022-12-24T06:24:51.348Z,12.20
2022-12-24T06:27:54.213Z,12.20
2022-12-24T06:31:02.455Z,12.20
2022-12-24T06:34:05.952Z,12.30
2022-12-24T06:37:18.175Z,12.30
2022-12-24T06:40:21.100Z,12.20
2022-12-24T06:43:24.094Z,12.20
2022-12-24T06:46:27.436Z,12.20
2022-12-24T06:49:30.390Z,12.20
2022-12-24T06:52:34.623Z,12.20
2022-12-24T06:55:37.744Z,12.20
2022-12-24T06:58:41.928Z,12.10
2022-12-24T07:01:44.901Z,12.10
2022-12-24T07:04:47.822Z,12.10
2022-12-24T07:07:52.055Z,12.20
2022-12-24T07:10:55.148Z,12.30
2022-12-24T07:13:58.069Z,12.20
2022-12-24T07:17:01.060Z,12.30
2022-12-24T07:20:04.615Z,12.20
2022-12-24T07:23:08.856Z,12.20
2022-12-24T07:26:12.428Z,12.20
2022-12-24T07:29:15.318Z,12.10
2022-12-24T07:32:20.388Z,12.10
2022-12-24T07:35:23.248Z,12.00
2022-12-24T07:38:27.472Z,12.00
2022-12-24T07:41:30.335Z,11.90
2022-12-24T07:44:33.420Z,11.80
2022-12-24T07:47:36.350Z,11.90
2022-12-24T07:50:39.210Z,12.00
2022-12-24T07:53:47.701Z,12.00
2022-12-24T07:56:50.616Z,12.00
2022-12-24T07:59:53.515Z,12.10
2022-12-24T08:02:56.453Z,12.10
2022-12-24T08:05:59.475Z,12.00
2022-12-24T08:09:03.785Z,11.90
2022-12-24T08:12:07.171Z,11.90
2022-12-24T08:15:10.815Z,11.90
2022-12-24T08:18:13.703Z,11.80
2022-12-24T08:21:16.609Z,11.80
2022-12-24T08:24:20.986Z,11.80
2022-12-24T08:27:24.064Z,11.80
2022-12-24T08:30:27.525Z,11.70
2022-12-24T08:33:30.404Z,11.70
2022-12-24T08:36:33.307Z,11.70
2022-12-24T08:39:37.740Z,11.70
2022-12-24T08:42:40.611Z,11.60
2022-12-24T08:45:44.131Z,11.70
2022-12-24T08:48:47.014Z,11.60
2022-12-24T08:51:50.043Z,11.60
2022-12-24T08:54:54.257Z,11.50
2022-12-24T08:57:57.107Z,11.50
2022-12-24T09:01:00.764Z,11.50
2022-12-24T09:04:03.815Z,11.60
2022-12-24T09:07:06.713Z,11.70
2022-12-24T09:10:12.097Z,11.60
2022-12-24T09:13:14.938Z,11.70
2022-12-24T09:16:18.147Z,11.70
2022-12-24T09:19:21.086Z,11.70
2022-12-24T09:22:24.065Z,11.60
2022-12-24T09:25:28.323Z,11.70
2022-12-24T09:28:32.115Z,11.70
2022-12-24T09:31:35.232Z,11.70
2022-12-24T09:34:38.178Z,11.80
2022-12-24T09:37:41.044Z,11.70
2022-12-24T09:40:45.301Z,11.70
2022-12-24T09:43:50.269Z,11.80
2022-12-24T09:46:55.905Z,11.70
2022-12-24T09:50:02.473Z,11.70
2022-12-24T09:53:14.056Z,11.80
2022-12-24T09:56:21.361Z,11.80
2022-12-24T09:59:29.607Z,11.60
2022-12-24T10:02:33.761Z,11.60
2022-12-24T10:05:43.362Z,11.70
2022-12-24T10:09:00.051Z,11.60
2022-12-24T10:12:10.732Z,11.60
2022-12-24T10:15:24.519Z,11.60
2022-12-24T10:18:35.595Z,11.70
2022-12-24T10:21:50.299Z,11.60
2022-12-24T10:24:59.842Z,11.70
2022-12-24T10:28:12.902Z,11.80
2022-12-24T10:31:16.759Z,11.80
2022-12-24T10:34:25.680Z,11.70
2022-12-24T10:37:30.725Z,11.60
2022-12-24T10:40:38.122Z,11.60
2022-12-24T10:43:44.947Z,11.70
2022-12-24T10:46:48.284Z,11.60
2022-12-24T10:49:58.001Z,11.60
2022-12-24T10:53:08.590Z,11.70
2022-12-24T10:56:14.490Z,11.90
2022-12-24T10:59:26.937Z,12.00
2022-12-24T11:02:32.917Z,12.10
2022-12-24T11:05:37.431Z,12.20
2022-12-24T11:08:42.587Z,12.30
2022-12-24T11:11:45.475Z,12.50
2022-12-24T11:14:59.983Z,12.60
2022-12-24T11:18:06.401Z,12.60
2022-12-24T11:21:09.531Z,12.60
2022-12-24T11:24:25.513Z,12.60
2022-12-24T11:27:39.732Z,12.70
2022-12-24T11:30:44.178Z,12.70
2022-12-24T11:33:49.301Z,12.80
2022-12-24T11:36:53.817Z,12.90
2022-12-24T11:40:00.843Z,12.90
2022-12-24T11:43:12.738Z,13.00
2022-12-24T11:46:37.076Z,13.00
2022-12-24T11:49:39.961Z,13.00
2022-12-24T11:52:44.861Z,13.10
2022-12-24T11:55:50.999Z,13.10
2022-12-24T11:58:59.388Z,13.00
2022-12-24T12:02:16.749Z,13.00
2022-12-24T12:05:22.766Z,13.10
2022-12-24T12:08:28.830Z,13.00
2022-12-24T12:11:33.641Z,12.70
2022-12-24T12:14:40.647Z,12.70
2022-12-24T12:17:48.386Z,12.70
2022-12-24T12:20:55.128Z,12.60
2022-12-24T12:24:02.244Z,12.60
2022-12-24T12:27:14.774Z,12.50
2022-12-24T12:30:21.299Z,12.60
2022-12-24T12:33:32.443Z,12.60
2022-12-24T12:36:40.847Z,12.50
2022-12-24T12:39:44.200Z,12.50
2022-12-24T12:42:57.392Z,12.40
2022-12-24T12:46:08.244Z,12.50
2022-12-24T12:49:25.832Z,12.40
2022-12-24T12:52:43.523Z,12.60
2022-12-24T12:55:56.023Z,12.70
2022-12-24T12:59:03.570Z,12.60
2022-12-24T13:02:26.186Z,12.50
2022-12-24T13:06:09.110Z,12.50
2022-12-24T13:09:49.291Z,12.60
2022-12-24T13:13:04.466Z,12.70
2022-12-24T13:16:39.255Z,12.40
2022-12-24T13:20:00.587Z,12.50
2022-12-24T13:23:13.543Z,12.50
2022-12-24T13:26:17.315Z,12.50
2022-12-24T13:29:42.755Z,12.50
2022-12-24T13:32:51.806Z,12.50
2022-12-24T13:36:02.551Z,12.30
2022-12-24T13:39:07.057Z,12.40
2022-12-24T13:42:09.936Z,12.50
2022-12-24T13:45:46.994Z,12.50
2022-12-24T13:48:49.920Z,12.40
2022-12-24T13:51:52.855Z,12.40
2022-12-24T13:55:08.131Z,12.40
2022-12-24T13:58:20.836Z,12.40
2022-12-24T14:01:35.541Z,12.50
2022-12-24T14:04:42.278Z,12.50
2022-12-24T14:07:48.821Z,12.60
2022-12-24T14:11:08.563Z,12.70
2022-12-24T14:14:26.466Z,12.70
2022-12-24T14:17:31.077Z,12.60
2022-12-24T14:20:34.451Z,12.60
2022-12-24T14:23:53.589Z,12.30
2022-12-24T14:26:59.736Z,12.40
2022-12-24T14:30:06.724Z,12.40
2022-12-24T14:33:29.535Z,12.40
2022-12-24T14:36:33.192Z,12.20
2022-12-24T14:39:38.957Z,12.20
2022-12-24T14:42:50.634Z,12.30
2022-12-24T14:46:00.511Z,12.40
2022-12-24T14:49:12.921Z,12.30
2022-12-24T14:52:45.865Z,12.30
2022-12-24T14:55:45.558Z,12.30
2022-12-24T14:58:50.471Z,12.30
2022-12-24T15:01:53.577Z,12.30
2022-12-24T15:05:08.684Z,12.20
2022-12-24T15:08:17.261Z,12.20
2022-12-24T15:11:23.090Z,12.20
2022-12-24T15:14:29.171Z,12.30
2022-12-24T15:17:32.176Z,12.30
2022-12-24T15:20:35.267Z,12.20
2022-12-24T15:23:38.837Z,12.00
2022-12-24T15:26:46.201Z,12.00
2022-12-24T15:29:53.247Z,12.00
2022-12-24T15:32:57.890Z,12.10
2022-12-24T15:36:00.856Z,12.10
2022-12-24T15:39:07.032Z,12.10
2022-12-24T15:42:14.608Z,12.10
2022-12-24T15:45:27.476Z,12.20
2022-12-24T15:48:32.722Z,12.20
2022-12-24T15:51:40.481Z,12.20
2022-12-24T15:54:45.112Z,12.20
2022-12-24T15:57:48.576Z,12.30
2022-12-24T16:01:07.563Z,12.30
2022-12-24T16:04:15.116Z,12.40
2022-12-24T16:07:26.108Z,12.40
2022-12-24T16:10:29.013Z,12.30
2022-12-24T16:13:33.836Z,12.40
2022-12-24T16:16:41.335Z,12.30
2022-12-24T16:19:49.700Z,12.30
2022-12-24T16:22:52.657Z,12.40
2022-12-24T16:25:55.515Z,12.40
2022-12-24T16:28:58.483Z,12.40
2022-12-24T16:32:02.731Z,12.40
2022-12-24T16:35:08.308Z,12.40
2022-12-24T16:38:11.598Z,12.40
2022-12-24T16:41:14.474Z,12.40
2022-12-24T16:44:16.453Z,12.40
2022-12-24T16:47:22.776Z,12.30
2022-12-24T16:50:26.058Z,12.30
2022-12-24T16:53:29.296Z,12.30
2022-12-24T16:56:32.166Z,12.30
2022-12-24T16:59:35.009Z,12.40
2022-12-24T17:02:40.779Z,12.30
2022-12-24T17:05:44.823Z,12.30
2022-12-24T17:08:49.422Z,12.30
2022-12-24T17:11:52.301Z,12.30
2022-12-24T17:14:55.171Z,12.20
2022-12-24T17:17:59.439Z,12.20
2022-12-24T17:21:03.629Z,12.20
2022-12-24T17:24:07.254Z,12.10
2022-12-24T17:27:10.262Z,12.10
2022-12-24T17:30:13.930Z,12.10
2022-12-24T17:33:18.151Z,12.20
2022-12-24T17:36:21.771Z,12.10
2022-12-24T17:39:27.857Z,12.10
2022-12-24T17:42:31.079Z,12.10
2022-12-24T17:45:33.952Z,12.20
2022-12-24T17:48:38.685Z,12.10
2022-12-24T17:51:45.727Z,12.20
2022-12-24T17:54:48.918Z,12.30
2022-12-24T17:57:51.775Z,12.30
2022-12-24T18:00:55.235Z,12.30
2022-12-24T18:04:02.276Z,12.20
2022-12-24T18:07:05.467Z,12.10
2022-12-24T18:10:09.738Z,12.10
2022-12-24T18:13:19.164Z,12.10
2022-12-24T18:16:25.432Z,12.20
2022-12-24T18:19:29.818Z,12.10
2022-12-24T18:22:32.691Z,12.20
2022-12-24T18:25:35.617Z,12.10
2022-12-24T18:28:39.269Z,12.10
2022-12-24T18:31:42.465Z,12.00
2022-12-24T18:34:46.850Z,12.00
2022-12-24T18:37:49.876Z,11.90
2022-12-24T18:40:52.992Z,11.90
2022-12-24T18:43:57.081Z,12.00
2022-12-24T18:47:00.063Z,12.00
2022-12-24T18:50:04.584Z,12.10
2022-12-24T18:53:08.369Z,12.10
2022-12-24T18:56:14.574Z,12.10
2022-12-24T18:59:17.444Z,12.20
2022-12-24T19:02:20.362Z,12.20
2022-12-24T19:05:24.663Z,12.20
2022-12-24T19:08:56.580Z,12.10
2022-12-24T19:11:50.795Z,12.10
2022-12-24T19:14:53.653Z,12.10
2022-12-24T19:17:56.561Z,12.10
2022-12-24T19:21:05.542Z,12.00
2022-12-24T19:24:10.519Z,12.00
2022-12-24T19:27:13.518Z,11.90
2022-12-24T19:30:16.532Z,11.90
2022-12-24T19:33:19.432Z,11.90
2022-12-24T19:36:25.939Z,11.90
2022-12-24T19:39:32.171Z,11.90
2022-12-24T19:42:35.183Z,11.90
2022-12-24T19:45:38.107Z,11.90
2022-12-24T19:48:41.598Z,11.90
2022-12-24T19:51:45.836Z,11.90
2022-12-24T19:54:48.670Z,11.80
2022-12-24T19:57:53.319Z,11.80
2022-12-24T20:00:56.755Z,11.80
2022-12-24T20:03:59.657Z,11.80
2022-12-24T20:07:03.857Z,11.70
2022-12-24T20:10:07.721Z,11.70
2022-12-24T20:13:11.027Z,11.60
2022-12-24T20:16:16.513Z,11.70
2022-12-24T20:19:19.489Z,11.60
2022-12-24T20:22:23.685Z,11.60
2022-12-24T20:25:26.571Z,11.70
2022-12-24T20:28:31.473Z,11.70
2022-12-24T20:31:34.960Z,11.70
2022-12-24T20:34:38.420Z,11.60
2022-12-24T20:37:46.154Z,11.70
2022-12-24T20:40:49.350Z,11.60
2022-12-24T20:43:52.633Z,11.60
2022-12-24T20:46:55.491Z,11.70
2022-12-24T20:49:58.421Z,11.70
2022-12-24T20:53:02.742Z,11.70
2022-12-24T20:56:05.921Z,11.60
2022-12-24T20:59:09.263Z,11.70
2022-12-24T21:02:13.458Z,11.60
2022-12-24T21:05:16.458Z,11.60
2022-12-24T21:08:20.714Z,11.50
2022-12-24T21:11:41.818Z,11.60
2022-12-24T21:14:45.526Z,11.60
2022-12-24T21:17:49.124Z,11.60
2022-12-24T21:20:52.079Z,11.60
2022-12-24T21:23:56.341Z,11.60
2022-12-24T21:26:59.208Z,11.60
2022-12-24T21:30:02.089Z,11.60
2022-12-24T21:33:05.217Z,11.60
2022-12-24T21:36:08.795Z,11.60
2022-12-24T21:39:13.042Z,11.60
2022-12-24T21:42:16.042Z,11.60
2022-12-24T21:45:19.015Z,11.60
2022-12-24T21:48:39.783Z,11.60
2022-12-24T21:51:46.579Z,11.60
2022-12-24T21:54:51.292Z,11.60
2022-12-24T21:57:54.133Z,11.50
2022-12-24T22:00:57.074Z,11.60
2022-12-24T22:04:00.169Z,11.50
2022-12-24T22:07:21.725Z,11.50
2022-12-24T22:10:43.552Z,11.60
2022-12-24T22:13:46.479Z,11.50
2022-12-24T22:16:49.502Z,11.50
2022-12-24T22:19:52.533Z,11.50
2022-12-24T22:22:55.439Z,11.50
2022-12-24T22:25:59.899Z,11.50
2022-12-24T22:29:05.420Z,11.50
2022-12-24T22:32:08.471Z,11.50
2022-12-24T22:35:11.454Z,11.50
2022-12-24T22:38:14.312Z,11.50
2022-12-24T22:41:18.690Z,11.50
2022-12-24T22:44:21.529Z,11.50
2022-12-24T22:47:24.503Z,11.50
2022-12-24T22:50:27.410Z,11.50
2022-12-24T22:53:30.295Z,11.40
2022-12-24T22:56:40.790Z,11.30
2022-12-24T22:59:44.514Z,11.40
2022-12-24T23:02:47.562Z,11.40
2022-12-24T23:05:57.479Z,11.40
2022-12-24T23:09:01.104Z,11.40
2022-12-24T23:12:06.459Z,11.30
2022-12-24T23:15:09.272Z,11.30
2022-12-24T23:18:13.247Z,11.40
2022-12-24T23:21:16.472Z,11.30
2022-12-24T23:24:19.370Z,11.40
2022-12-24T23:27:23.573Z,11.40
2022-12-24T23:30:26.497Z,11.40
2022-12-24T23:33:30.324Z,11.40
2022-12-24T23:36:33.209Z,11.50
2022-12-24T23:39:36.056Z,11.50
2022-12-24T23:42:40.322Z,11.50
2022-12-24T23:45:48.126Z,11.40
2022-12-24T23:48:55.295Z,11.40
2022-12-24T23:51:58.236Z,11.40
2022-12-24T23:55:01.074Z,11.40
2022-12-24T23:58:06.221Z,11.40
